createdAt,value
2023-04-15T00:00:01.776Z,6.39
2023-04-15T00:00:12.020Z,6.38
2023-04-15T00:00:22.246Z,6.39
2023-04-15T00:00:32.476Z,6.38
2023-04-15T00:00:42.713Z,6.38
2023-04-15T00:00:52.956Z,6.36
2023-04-15T00:01:03.192Z,6.36
2023-04-15T00:01:13.434Z,6.38
2023-04-15T00:01:23.652Z,6.35
2023-04-15T00:01:33.890Z,6.36
2023-04-15T00:01:44.161Z,6.35
2023-04-15T00:01:54.482Z,6.34
2023-04-15T00:02:04.880Z,6.32
2023-04-15T00:02:15.177Z,6.32
2023-04-15T00:02:25.672Z,6.32
2023-04-15T00:02:35.974Z,6.34
2023-04-15T00:02:46.273Z,6.32
2023-04-15T00:02:56.507Z,6.32
2023-04-15T00:03:06.752Z,6.32
2023-04-15T00:03:17.247Z,6.34
2023-04-15T00:03:27.543Z,6.31
2023-04-15T00:03:37.889Z,6.34
2023-04-15T00:03:48.327Z,6.31
2023-04-15T00:03:58.514Z,6.31
2023-04-15T00:04:08.955Z,6.29
2023-04-15T00:04:19.287Z,6.29
2023-04-15T00:04:29.568Z,6.29
2023-04-15T00:04:39.843Z,6.28
2023-04-15T00:04:50.177Z,6.28
2023-04-15T00:05:00.375Z,6.28
2023-04-15T00:05:10.604Z,6.28
2023-04-15T00:05:20.844Z,6.26
2023-04-15T00:05:31.088Z,6.26
2023-04-15T00:05:41.313Z,6.22
2023-04-15T00:05:51.549Z,6.26
2023-04-15T00:06:01.792Z,6.26
2023-04-15T00:06:12.027Z,6.25
2023-04-15T00:06:22.263Z,6.25
2023-04-15T00:06:32.532Z,6.22
2023-04-15T00:06:42.775Z,6.22
2023-04-15T00:06:52.998Z,6.22
2023-04-15T00:07:03.209Z,6.22
2023-04-15T00:07:13.455Z,6.25
2023-04-15T00:07:23.680Z,6.22
2023-04-15T00:07:33.921Z,6.20
2023-04-15T00:07:44.187Z,6.22
2023-04-15T00:07:54.415Z,6.19
2023-04-15T00:08:04.650Z,6.19
2023-04-15T00:08:14.891Z,6.19
2023-04-15T00:08:25.125Z,6.19
2023-04-15T00:08:35.360Z,6.20
2023-04-15T00:08:45.596Z,6.16
2023-04-15T00:08:55.833Z,6.17
2023-04-15T00:09:06.059Z,6.17
2023-04-15T00:09:16.295Z,6.16
2023-04-15T00:09:26.544Z,6.17
2023-04-15T00:09:36.776Z,6.16
2023-04-15T00:09:47.045Z,6.15
2023-04-15T00:09:57.249Z,6.15
2023-04-15T00:10:07.486Z,6.13
2023-04-15T00:10:17.717Z,6.13
2023-04-15T00:10:27.957Z,6.15
2023-04-15T00:10:38.188Z,6.13
2023-04-15T00:10:48.420Z,6.12
2023-04-15T00:10:58.659Z,6.13
2023-04-15T00:11:08.896Z,6.12
2023-04-15T00:11:19.123Z,6.09
2023-04-15T00:11:29.361Z,6.10
2023-04-15T00:11:39.595Z,6.10
2023-04-15T00:11:49.837Z,6.13
2023-04-15T00:12:00.072Z,6.13
2023-04-15T00:12:10.304Z,6.10
2023-04-15T00:12:20.541Z,6.12
2023-04-15T00:12:30.773Z,6.10
2023-04-15T00:12:41.011Z,6.07
2023-04-15T00:12:51.276Z,6.09
2023-04-15T00:13:01.516Z,6.09
2023-04-15T00:13:11.753Z,6.09
2023-04-15T00:13:21.987Z,6.09
2023-04-15T00:13:32.237Z,6.07
2023-04-15T00:13:42.452Z,6.07
2023-04-15T00:13:52.695Z,6.07
2023-04-15T00:14:02.927Z,6.07
2023-04-15T00:14:13.156Z,6.07
2023-04-15T00:14:23.399Z,6.05
2023-04-15T00:14:33.632Z,6.06
2023-04-15T00:14:43.895Z,6.05
2023-04-15T00:14:54.136Z,6.06
2023-04-15T00:15:04.356Z,6.06
2023-04-15T00:15:14.592Z,6.05
2023-04-15T00:15:24.833Z,6.02
2023-04-15T00:15:35.068Z,6.02
2023-04-15T00:15:45.317Z,6.02
2023-04-15T00:15:55.538Z,6.01
2023-04-15T00:16:05.771Z,5.99
2023-04-15T00:16:16.036Z,5.99
2023-04-15T00:16:26.258Z,6.01
2023-04-15T00:16:36.573Z,6.01
2023-04-15T00:16:46.828Z,5.99
2023-04-15T00:16:57.085Z,5.98
2023-04-15T00:17:07.306Z,5.99
2023-04-15T00:17:17.547Z,5.98
2023-04-15T00:17:27.837Z,5.98
2023-04-15T00:17:38.041Z,5.98
2023-04-15T00:17:48.309Z,5.97
2023-04-15T00:17:58.574Z,5.95
2023-04-15T00:18:08.784Z,5.97
2023-04-15T00:18:19.022Z,5.97
2023-04-15T00:18:29.252Z,5.97
2023-04-15T00:18:39.494Z,5.97
2023-04-15T00:18:49.724Z,5.95
2023-04-15T00:19:00.185Z,5.95
2023-04-15T00:19:10.335Z,5.95
2023-04-15T00:19:20.564Z,5.95
2023-04-15T00:19:30.794Z,5.95
2023-04-15T00:19:41.059Z,5.94
2023-04-15T00:19:51.284Z,5.95
2023-04-15T00:20:01.518Z,5.94
2023-04-15T00:20:11.754Z,5.94
2023-04-15T00:20:21.993Z,5.94
2023-04-15T00:20:32.237Z,5.94
2023-04-15T00:20:42.463Z,5.91
2023-04-15T00:20:52.755Z,5.92
2023-04-15T00:21:02.948Z,5.91
2023-04-15T00:21:13.186Z,5.92
2023-04-15T00:21:23.423Z,5.92
2023-04-15T00:21:33.653Z,5.92
2023-04-15T00:21:43.886Z,5.92
2023-04-15T00:21:54.135Z,5.90
2023-04-15T00:22:04.358Z,5.90
2023-04-15T00:22:14.589Z,5.91
2023-04-15T00:22:24.825Z,5.90
2023-04-15T00:22:35.067Z,5.90
2023-04-15T00:22:45.351Z,5.88
2023-04-15T00:22:55.616Z,5.90
2023-04-15T00:23:05.854Z,5.84
2023-04-15T00:23:16.098Z,5.87
2023-04-15T00:23:26.326Z,5.88
2023-04-15T00:23:36.556Z,5.88
2023-04-15T00:23:46.796Z,5.87
2023-04-15T00:23:57.027Z,5.87
2023-04-15T00:24:07.274Z,5.84
2023-04-15T00:24:17.512Z,5.87
2023-04-15T00:24:27.749Z,5.83
2023-04-15T00:24:37.988Z,5.84
2023-04-15T00:24:48.221Z,5.84
2023-04-15T00:24:58.457Z,5.83
2023-04-15T00:25:08.688Z,5.84
2023-04-15T00:25:18.923Z,5.84
2023-04-15T00:25:29.216Z,5.83
2023-04-15T00:25:39.451Z,5.80
2023-04-15T00:25:49.687Z,5.81
2023-04-15T00:25:59.920Z,5.81
2023-04-15T00:26:10.154Z,5.80
2023-04-15T00:26:20.399Z,5.81
2023-04-15T00:26:30.640Z,5.80
2023-04-15T00:26:40.861Z,5.80
2023-04-15T00:26:51.095Z,5.80
2023-04-15T00:27:01.332Z,5.80
2023-04-15T00:27:11.572Z,5.79
2023-04-15T00:27:21.867Z,5.79
2023-04-15T00:27:32.089Z,5.77
2023-04-15T00:27:42.308Z,5.79
2023-04-15T00:27:52.604Z,5.77
2023-04-15T00:28:02.812Z,5.77
2023-04-15T00:28:13.045Z,5.76
2023-04-15T00:28:23.278Z,5.76
2023-04-15T00:28:33.513Z,5.76
2023-04-15T00:28:43.775Z,5.76
2023-04-15T00:28:54.001Z,5.77
2023-04-15T00:29:04.232Z,5.76
2023-04-15T00:29:14.461Z,5.74
2023-04-15T00:29:24.697Z,5.73
2023-04-15T00:29:34.940Z,5.74
2023-04-15T00:29:45.168Z,5.74
2023-04-15T00:29:55.466Z,5.73
2023-04-15T00:30:05.710Z,5.73
2023-04-15T00:30:15.921Z,5.73
2023-04-15T00:30:26.156Z,5.73
2023-04-15T00:30:36.573Z,5.72
2023-04-15T00:30:46.799Z,5.72
2023-04-15T00:30:57.103Z,5.72
2023-04-15T00:31:07.429Z,5.73
2023-04-15T00:31:17.703Z,5.72
2023-04-15T00:31:28.008Z,5.72
2023-04-15T00:31:38.239Z,5.70
2023-04-15T00:31:48.461Z,5.70
2023-04-15T00:31:58.698Z,5.69
2023-04-15T00:32:08.946Z,5.70
2023-04-15T00:32:19.167Z,5.69
2023-04-15T00:32:29.446Z,5.69
2023-04-15T00:32:39.707Z,5.69
2023-04-15T00:32:50.096Z,5.69
2023-04-15T00:33:00.325Z,5.69
2023-04-15T00:33:10.570Z,5.65
2023-04-15T00:33:20.809Z,5.67
2023-04-15T00:33:31.042Z,5.67
2023-04-15T00:33:41.309Z,5.65
2023-04-15T00:33:51.528Z,5.65
2023-04-15T00:34:01.794Z,5.67
2023-04-15T00:34:12.023Z,5.64
2023-04-15T00:34:22.263Z,5.64
2023-04-15T00:34:32.492Z,5.64
2023-04-15T00:34:42.736Z,5.64
2023-04-15T00:34:52.964Z,5.64
2023-04-15T00:35:03.232Z,5.61
2023-04-15T00:35:13.430Z,5.62
2023-04-15T00:35:23.672Z,5.62
2023-04-15T00:35:33.899Z,5.62
2023-04-15T00:35:44.137Z,5.59
2023-04-15T00:35:54.373Z,5.61
2023-04-15T00:36:04.605Z,5.59
2023-04-15T00:36:14.850Z,5.61
2023-04-15T00:36:25.079Z,5.61
2023-04-15T00:36:35.317Z,5.59
2023-04-15T00:36:45.576Z,5.59
2023-04-15T00:36:55.816Z,5.59
2023-04-15T00:37:06.175Z,5.59
2023-04-15T00:37:16.416Z,5.56
2023-04-15T00:37:26.659Z,5.58
2023-04-15T00:37:36.886Z,5.58
2023-04-15T00:37:47.140Z,5.56
2023-04-15T00:37:57.378Z,5.56
2023-04-15T00:38:07.619Z,5.56
2023-04-15T00:38:17.845Z,5.55
2023-04-15T00:38:28.093Z,5.55
2023-04-15T00:38:38.321Z,5.56
2023-04-15T00:38:48.564Z,5.55
2023-04-15T00:38:59.126Z,5.55
2023-04-15T00:39:09.065Z,5.55
2023-04-15T00:39:19.296Z,5.55
2023-04-15T00:39:29.533Z,5.52
2023-04-15T00:39:39.784Z,5.54
2023-04-15T00:39:50.002Z,5.52
2023-04-15T00:40:00.237Z,5.52
2023-04-15T00:40:10.468Z,5.52
2023-04-15T00:40:20.713Z,5.52
2023-04-15T00:40:30.941Z,5.52
2023-04-15T00:40:41.187Z,5.51
2023-04-15T00:40:51.421Z,5.52
2023-04-15T00:41:01.645Z,5.51
2023-04-15T00:41:11.881Z,5.51
2023-04-15T00:41:22.114Z,5.51
2023-04-15T00:41:32.348Z,5.49
2023-04-15T00:41:42.600Z,5.49
2023-04-15T00:41:52.821Z,5.49
2023-04-15T00:42:03.057Z,5.47
2023-04-15T00:42:13.288Z,5.49
2023-04-15T00:42:23.525Z,5.49
2023-04-15T00:42:33.758Z,5.47
2023-04-15T00:42:44.014Z,5.47
2023-04-15T00:42:54.274Z,5.47
2023-04-15T00:43:04.486Z,5.49
2023-04-15T00:43:14.732Z,5.46
2023-04-15T00:43:24.962Z,5.46
2023-04-15T00:43:35.197Z,5.44
2023-04-15T00:43:45.424Z,5.46
2023-04-15T00:43:55.685Z,5.44
2023-04-15T00:44:05.905Z,5.46
2023-04-15T00:44:16.134Z,5.44
2023-04-15T00:44:26.368Z,5.43
2023-04-15T00:44:36.608Z,5.44
2023-04-15T00:44:46.845Z,5.41
2023-04-15T00:44:57.071Z,5.43
2023-04-15T00:45:07.311Z,5.43
2023-04-15T00:45:17.537Z,5.40
2023-04-15T00:45:27.786Z,5.41
2023-04-15T00:45:38.056Z,5.43
2023-04-15T00:45:48.407Z,5.41
2023-04-15T00:45:58.731Z,5.41
2023-04-15T00:46:09.013Z,5.41
2023-04-15T00:46:19.283Z,5.40
2023-04-15T00:46:29.563Z,5.37
2023-04-15T00:46:39.795Z,5.38
2023-04-15T00:46:50.025Z,5.38
2023-04-15T00:47:00.250Z,5.38
2023-04-15T00:47:10.492Z,5.38
2023-04-15T00:47:20.781Z,5.37
2023-04-15T00:47:31.032Z,5.38
2023-04-15T00:47:41.295Z,5.37
2023-04-15T00:47:51.558Z,5.38
2023-04-15T00:48:01.912Z,5.37
2023-04-15T00:48:12.183Z,5.37
2023-04-15T00:48:22.411Z,5.36
2023-04-15T00:48:32.659Z,5.37
2023-04-15T00:48:42.885Z,5.36
2023-04-15T00:48:53.113Z,5.36
2023-04-15T00:49:03.355Z,5.36
2023-04-15T00:49:13.600Z,5.34
2023-04-15T00:49:23.820Z,5.34
2023-04-15T00:49:34.055Z,5.34
2023-04-15T00:49:44.295Z,5.34
2023-04-15T00:49:54.525Z,5.36
2023-04-15T00:50:04.761Z,5.33
2023-04-15T00:50:14.995Z,5.33
2023-04-15T00:50:25.252Z,5.33
2023-04-15T00:50:35.474Z,5.33
2023-04-15T00:50:45.702Z,5.31
2023-04-15T00:50:55.942Z,5.31
2023-04-15T00:51:06.176Z,5.31
2023-04-15T00:51:16.417Z,5.31
2023-04-15T00:51:26.640Z,5.31
2023-04-15T00:51:36.917Z,5.31
2023-04-15T00:51:47.129Z,5.28
2023-04-15T00:51:57.381Z,5.28
2023-04-15T00:52:07.629Z,5.29
2023-04-15T00:52:17.856Z,5.29
2023-04-15T00:52:28.095Z,5.29
2023-04-15T00:52:38.342Z,5.28
2023-04-15T00:52:48.582Z,5.28
2023-04-15T00:52:58.818Z,5.26
2023-04-15T00:53:09.062Z,5.29
2023-04-15T00:53:19.289Z,5.26
2023-04-15T00:53:29.534Z,5.28
2023-04-15T00:53:39.763Z,5.25
2023-04-15T00:53:50.015Z,5.25
2023-04-15T00:54:00.234Z,5.25
2023-04-15T00:54:10.460Z,5.25
2023-04-15T00:54:20.694Z,5.25
2023-04-15T00:54:30.927Z,5.25
2023-04-15T00:54:41.163Z,5.23
2023-04-15T00:54:51.406Z,5.22
2023-04-15T00:55:01.632Z,5.25
2023-04-15T00:55:11.873Z,5.22
2023-04-15T00:55:22.108Z,5.22
2023-04-15T00:55:32.344Z,5.22
2023-04-15T00:55:42.573Z,5.22
2023-04-15T00:55:52.810Z,5.22
2023-04-15T00:56:03.047Z,5.20
2023-04-15T00:56:13.280Z,5.19
2023-04-15T00:56:23.515Z,5.20
2023-04-15T00:56:33.750Z,5.20
2023-04-15T00:56:43.982Z,5.19
2023-04-15T00:56:54.225Z,5.19
2023-04-15T00:57:04.452Z,5.19
2023-04-15T00:57:14.699Z,5.18
2023-04-15T00:57:24.948Z,5.18
2023-04-15T00:57:37.746Z,5.18
2023-04-15T00:57:45.395Z,5.18
2023-04-15T00:57:55.630Z,5.18
2023-04-15T00:58:05.863Z,5.16
2023-04-15T00:58:16.106Z,5.18
2023-04-15T00:58:26.360Z,5.16
2023-04-15T00:58:46.985Z,5.16
2023-04-15T00:58:57.224Z,5.16
2023-04-15T00:59:07.501Z,5.16
2023-04-15T00:59:17.711Z,5.15
2023-04-15T00:59:27.946Z,5.15
2023-04-15T00:59:38.183Z,5.16
2023-04-15T00:59:48.419Z,5.15
2023-04-15T00:59:58.685Z,5.15
2023-04-15T01:00:08.948Z,5.13
2023-04-15T01:00:19.141Z,5.15
2023-04-15T01:00:29.374Z,5.13
2023-04-15T01:00:39.609Z,5.13
2023-04-15T01:00:49.844Z,5.12
2023-04-15T01:01:00.103Z,5.13
2023-04-15T01:01:10.357Z,5.12
2023-04-15T01:01:20.592Z,5.12
2023-04-15T01:01:30.866Z,5.10
2023-04-15T01:01:41.129Z,5.08
2023-04-15T01:01:51.463Z,5.08
2023-04-15T01:02:01.770Z,5.10
2023-04-15T01:02:12.162Z,5.10
2023-04-15T01:02:22.305Z,5.10
2023-04-15T01:02:32.811Z,5.07
2023-04-15T01:02:43.076Z,5.10
2023-04-15T01:02:53.473Z,5.07
2023-04-15T01:03:03.857Z,5.10
2023-04-15T01:03:14.320Z,5.08
2023-04-15T01:03:24.577Z,5.07
2023-04-15T01:03:35.081Z,5.07
2023-04-15T01:03:45.384Z,5.07
2023-04-15T01:03:55.616Z,5.05
2023-04-15T01:04:06.034Z,5.07
2023-04-15T01:04:16.396Z,5.07
2023-04-15T01:04:26.743Z,5.05
2023-04-15T01:04:37.070Z,5.04
2023-04-15T01:04:47.284Z,5.05
2023-04-15T01:04:57.525Z,5.04
2023-04-15T01:05:07.875Z,5.05
2023-04-15T01:05:18.096Z,5.05
2023-04-15T01:05:28.331Z,5.05
2023-04-15T01:05:38.564Z,5.02
2023-04-15T01:05:48.792Z,5.02
2023-04-15T01:05:59.517Z,5.04
2023-04-15T01:06:09.338Z,5.02
2023-04-15T01:06:19.624Z,5.02
2023-04-15T01:06:29.813Z,5.01
2023-04-15T01:06:40.062Z,5.02
2023-04-15T01:06:50.282Z,5.01
2023-04-15T01:07:00.526Z,5.00
2023-04-15T01:07:10.752Z,5.01
2023-04-15T01:07:21.032Z,5.00
2023-04-15T01:07:31.265Z,4.98
2023-04-15T01:07:41.503Z,5.00
2023-04-15T01:07:51.739Z,5.00
2023-04-15T01:08:01.994Z,4.98
2023-04-15T01:08:12.204Z,4.98
2023-04-15T01:08:22.440Z,4.97
2023-04-15T01:08:32.672Z,4.98
2023-04-15T01:08:42.914Z,4.97
2023-04-15T01:08:53.143Z,4.95
2023-04-15T01:09:03.574Z,4.97
2023-04-15T01:09:13.742Z,4.97
2023-04-15T01:09:23.973Z,4.95
2023-04-15T01:09:34.220Z,4.94
2023-04-15T01:09:44.449Z,4.94
2023-04-15T01:09:54.693Z,4.95
2023-04-15T01:10:04.934Z,4.95
2023-04-15T01:10:15.160Z,4.95
2023-04-15T01:10:25.389Z,4.92
2023-04-15T01:10:35.627Z,4.94
2023-04-15T01:10:45.855Z,4.94
2023-04-15T01:10:56.092Z,4.92
2023-04-15T01:11:06.336Z,4.92
2023-04-15T01:11:16.565Z,4.92
2023-04-15T01:11:26.803Z,4.94
2023-04-15T01:11:37.040Z,4.90
2023-04-15T01:11:47.268Z,4.92
2023-04-15T01:11:57.509Z,4.92
2023-04-15T01:12:07.743Z,4.90
2023-04-15T01:12:18.017Z,4.89
2023-04-15T01:12:28.262Z,4.89
2023-04-15T01:12:38.470Z,4.90
2023-04-15T01:12:48.705Z,4.89
2023-04-15T01:12:58.948Z,4.87
2023-04-15T01:13:09.179Z,4.87
2023-04-15T01:13:19.415Z,4.87
2023-04-15T01:13:29.655Z,4.87
2023-04-15T01:13:39.890Z,4.87
2023-04-15T01:13:50.117Z,4.86
2023-04-15T01:14:00.367Z,4.87
2023-04-15T01:14:10.615Z,4.86
2023-04-15T01:14:20.827Z,4.86
2023-04-15T01:14:31.061Z,4.86
2023-04-15T01:14:41.350Z,4.84
2023-04-15T01:14:51.560Z,4.84
2023-04-15T01:15:01.883Z,4.84
2023-04-15T01:15:12.136Z,4.86
2023-04-15T01:15:22.358Z,4.83
2023-04-15T01:15:32.601Z,4.84
2023-04-15T01:15:42.919Z,4.83
2023-04-15T01:15:53.136Z,4.83
2023-04-15T01:16:03.457Z,4.83
2023-04-15T01:16:13.817Z,4.82
2023-04-15T01:16:24.079Z,4.82
2023-04-15T01:16:34.320Z,4.82
2023-04-15T01:16:44.568Z,4.82
2023-04-15T01:16:54.803Z,4.82
2023-04-15T01:17:05.051Z,4.82
2023-04-15T01:17:15.272Z,4.78
2023-04-15T01:17:25.560Z,4.79
2023-04-15T01:17:35.834Z,4.78
2023-04-15T01:17:46.046Z,4.79
2023-04-15T01:17:56.324Z,4.78
2023-04-15T01:18:06.530Z,4.78
2023-04-15T01:18:16.765Z,4.78
2023-04-15T01:18:26.999Z,4.78
2023-04-15T01:18:37.230Z,4.78
2023-04-15T01:18:47.492Z,4.76
2023-04-15T01:18:57.840Z,4.78
2023-04-15T01:19:07.955Z,4.76
2023-04-15T01:19:18.169Z,4.76
2023-04-15T01:19:28.398Z,4.76
2023-04-15T01:19:38.637Z,4.75
2023-04-15T01:19:48.882Z,4.76
2023-04-15T01:19:59.111Z,4.75
2023-04-15T01:20:09.350Z,4.74
2023-04-15T01:20:19.580Z,4.74
2023-04-15T01:20:29.815Z,4.75
2023-04-15T01:20:40.056Z,4.71
2023-04-15T01:20:50.293Z,4.75
2023-04-15T01:21:00.536Z,4.71
2023-04-15T01:21:10.771Z,4.71
2023-04-15T01:21:21.008Z,4.74
2023-04-15T01:21:31.233Z,4.71
2023-04-15T01:21:41.477Z,4.71
2023-04-15T01:21:51.706Z,4.71
2023-04-15T01:22:02.013Z,4.71
2023-04-15T01:22:12.235Z,4.70
2023-04-15T01:22:22.502Z,4.71
2023-04-15T01:22:32.734Z,4.71
2023-04-15T01:22:42.976Z,4.68
2023-04-15T01:22:53.225Z,4.70
2023-04-15T01:23:03.447Z,4.68
2023-04-15T01:23:13.679Z,4.68
2023-04-15T01:23:23.924Z,4.68
2023-04-15T01:23:34.156Z,4.68
2023-04-15T01:23:44.383Z,4.68
2023-04-15T01:23:54.618Z,4.68
2023-04-15T01:24:04.863Z,4.66
2023-04-15T01:24:15.089Z,4.66
2023-04-15T01:24:25.323Z,4.67
2023-04-15T01:24:35.565Z,4.67
2023-04-15T01:24:45.791Z,4.66
2023-04-15T01:24:56.029Z,4.66
2023-04-15T01:25:06.276Z,4.66
2023-04-15T01:25:16.501Z,4.66
2023-04-15T01:25:26.742Z,4.64
2023-04-15T01:25:36.972Z,4.64
2023-04-15T01:25:47.202Z,4.64
2023-04-15T01:25:57.453Z,4.63
2023-04-15T01:26:07.677Z,4.64
2023-04-15T01:26:17.927Z,4.64
2023-04-15T01:26:28.163Z,4.63
2023-04-15T01:26:38.384Z,4.63
2023-04-15T01:26:48.622Z,4.63
2023-04-15T01:26:58.855Z,4.63
2023-04-15T01:27:09.136Z,4.63
2023-04-15T01:27:19.348Z,4.63
2023-04-15T01:27:29.578Z,4.61
2023-04-15T01:27:39.812Z,4.61
2023-04-15T01:27:50.055Z,4.61
2023-04-15T01:28:00.281Z,4.60
2023-04-15T01:28:10.516Z,4.60
2023-04-15T01:28:20.753Z,4.61
2023-04-15T01:28:30.987Z,4.61
2023-04-15T01:28:41.221Z,4.58
2023-04-15T01:28:51.455Z,4.58
2023-04-15T01:29:01.826Z,4.60
2023-04-15T01:29:12.100Z,4.58
2023-04-15T01:29:22.362Z,4.57
2023-04-15T01:29:32.570Z,4.57
2023-04-15T01:29:42.810Z,4.57
2023-04-15T01:29:53.044Z,4.58
2023-04-15T01:30:03.306Z,4.56
2023-04-15T01:30:13.518Z,4.57
2023-04-15T01:30:23.753Z,4.57
2023-04-15T01:30:33.996Z,4.57
2023-04-15T01:30:44.233Z,4.53
2023-04-15T01:30:54.466Z,4.53
2023-04-15T01:31:04.702Z,4.53
2023-04-15T01:31:14.965Z,4.56
2023-04-15T01:31:25.209Z,4.53
2023-04-15T01:31:35.468Z,4.53
2023-04-15T01:31:45.748Z,4.56
2023-04-15T01:31:56.081Z,4.53
2023-04-15T01:32:06.204Z,4.52
2023-04-15T01:32:16.438Z,4.50
2023-04-15T01:32:26.713Z,4.49
2023-04-15T01:32:36.983Z,4.50
2023-04-15T01:32:47.254Z,4.50
2023-04-15T01:32:57.657Z,4.50
2023-04-15T01:33:07.882Z,4.52
2023-04-15T01:33:18.115Z,4.49
2023-04-15T01:33:28.361Z,4.50
2023-04-15T01:33:38.586Z,4.49
2023-04-15T01:33:48.820Z,4.49
2023-04-15T01:33:59.054Z,4.49
2023-04-15T01:34:09.295Z,4.49
2023-04-15T01:34:19.526Z,4.49
2023-04-15T01:34:29.760Z,4.48
2023-04-15T01:34:40.009Z,4.48
2023-04-15T01:34:50.236Z,4.46
2023-04-15T01:35:00.477Z,4.46
2023-04-15T01:35:10.706Z,4.48
2023-04-15T01:35:20.943Z,4.46
2023-04-15T01:35:31.176Z,4.46
2023-04-15T01:35:41.518Z,4.46
2023-04-15T01:35:51.743Z,4.45
2023-04-15T01:36:02.075Z,4.45
2023-04-15T01:36:12.296Z,4.46
2023-04-15T01:36:22.536Z,4.45
2023-04-15T01:36:32.763Z,4.43
2023-04-15T01:36:43.009Z,4.43
2023-04-15T01:36:53.242Z,4.43
2023-04-15T01:37:03.472Z,4.42
2023-04-15T01:37:13.729Z,4.42
2023-04-15T01:37:24.013Z,4.42
2023-04-15T01:37:34.216Z,4.42
2023-04-15T01:37:44.448Z,4.42
2023-04-15T01:37:54.683Z,4.40
2023-04-15T01:38:04.921Z,4.39
2023-04-15T01:38:15.155Z,4.39
2023-04-15T01:38:25.398Z,4.39
2023-04-15T01:38:35.639Z,4.39
2023-04-15T01:38:45.866Z,4.39
2023-04-15T01:38:56.104Z,4.36
2023-04-15T01:39:06.337Z,4.38
2023-04-15T01:39:16.576Z,4.36
2023-04-15T01:39:26.812Z,4.36
2023-04-15T01:39:37.041Z,4.36
2023-04-15T01:39:47.276Z,4.36
2023-04-15T01:39:57.540Z,4.36
2023-04-15T01:40:07.762Z,4.36
2023-04-15T01:40:18.000Z,4.34
2023-04-15T01:40:28.233Z,4.34
2023-04-15T01:40:38.468Z,4.32
2023-04-15T01:40:48.708Z,4.32
2023-04-15T01:40:58.943Z,4.32
2023-04-15T01:41:09.180Z,4.34
2023-04-15T01:41:19.407Z,4.34
2023-04-15T01:41:29.643Z,4.32
2023-04-15T01:41:39.883Z,4.31
2023-04-15T01:41:50.112Z,4.31
2023-04-15T01:42:00.350Z,4.31
2023-04-15T01:42:10.608Z,4.31
2023-04-15T01:42:20.845Z,4.31
2023-04-15T01:42:31.071Z,4.31
2023-04-15T01:42:41.308Z,4.31
2023-04-15T01:42:51.544Z,4.31
2023-04-15T01:43:01.787Z,4.32
2023-04-15T01:43:12.016Z,4.32
2023-04-15T01:43:22.254Z,4.30
2023-04-15T01:43:32.503Z,4.31
2023-04-15T01:43:42.723Z,4.30
2023-04-15T01:43:52.960Z,4.31
2023-04-15T01:44:03.194Z,4.30
2023-04-15T01:44:13.430Z,4.27
2023-04-15T01:44:23.665Z,4.28
2023-04-15T01:44:33.958Z,4.30
2023-04-15T01:44:44.145Z,4.27
2023-04-15T01:44:54.377Z,4.28
2023-04-15T01:45:04.620Z,4.28
2023-04-15T01:45:14.847Z,4.28
2023-04-15T01:45:25.107Z,4.25
2023-04-15T01:45:35.349Z,4.27
2023-04-15T01:45:45.576Z,4.27
2023-04-15T01:45:55.808Z,4.25
2023-04-15T01:46:06.042Z,4.27
2023-04-15T01:46:16.286Z,4.25
2023-04-15T01:46:26.558Z,4.25
2023-04-15T01:46:36.818Z,4.25
2023-04-15T01:46:47.052Z,4.27
2023-04-15T01:46:57.353Z,4.25
2023-04-15T01:47:07.587Z,4.24
2023-04-15T01:47:17.837Z,4.25
2023-04-15T01:47:28.138Z,4.25
2023-04-15T01:47:38.397Z,4.24
2023-04-15T01:47:48.679Z,4.22
2023-04-15T01:47:58.941Z,4.24
2023-04-15T01:48:09.168Z,4.21
2023-04-15T01:48:19.399Z,4.22
2023-04-15T01:48:29.638Z,4.22
2023-04-15T01:48:39.878Z,4.21
2023-04-15T01:48:50.114Z,4.21
2023-04-15T01:49:00.535Z,4.21
2023-04-15T01:49:10.642Z,4.22
2023-04-15T01:49:20.868Z,4.21
2023-04-15T01:49:31.097Z,4.21
2023-04-15T01:49:41.335Z,4.21
2023-04-15T01:49:51.571Z,4.21
2023-04-15T01:50:01.821Z,4.21
2023-04-15T01:50:12.048Z,4.20
2023-04-15T01:50:22.282Z,4.20
2023-04-15T01:50:32.513Z,4.20
2023-04-15T01:50:42.742Z,4.18
2023-04-15T01:50:52.993Z,4.20
2023-04-15T01:51:03.215Z,4.20
2023-04-15T01:51:13.451Z,4.18
2023-04-15T01:51:23.693Z,4.18
2023-04-15T01:51:33.926Z,4.16
2023-04-15T01:51:44.160Z,4.16
2023-04-15T01:51:54.394Z,4.18
2023-04-15T01:52:04.629Z,4.16
2023-04-15T01:52:14.875Z,4.16
2023-04-15T01:52:25.112Z,4.16
2023-04-15T01:52:35.344Z,4.16
2023-04-15T01:52:45.579Z,4.14
2023-04-15T01:52:55.814Z,4.13
2023-04-15T01:53:06.049Z,4.14
2023-04-15T01:53:16.285Z,4.13
2023-04-15T01:53:26.518Z,4.14
2023-04-15T01:53:36.752Z,4.14
2023-04-15T01:53:46.987Z,4.13
2023-04-15T01:53:57.220Z,4.13
2023-04-15T01:54:07.467Z,4.12
2023-04-15T01:54:17.693Z,4.12
2023-04-15T01:54:27.936Z,4.12
2023-04-15T01:54:38.171Z,4.12
2023-04-15T01:54:48.395Z,4.12
2023-04-15T01:54:58.639Z,4.12
2023-04-15T01:55:08.866Z,4.12
2023-04-15T01:55:19.102Z,4.10
2023-04-15T01:55:29.340Z,4.10
2023-04-15T01:55:39.590Z,4.12
2023-04-15T01:55:49.810Z,4.10
2023-04-15T01:56:00.048Z,4.10
2023-04-15T01:56:10.284Z,4.09
2023-04-15T01:56:20.511Z,4.10
2023-04-15T01:56:30.879Z,4.07
2023-04-15T01:56:41.112Z,4.07
2023-04-15T01:56:51.351Z,4.10
2023-04-15T01:57:01.588Z,4.07
2023-04-15T01:57:11.827Z,4.06
2023-04-15T01:57:22.075Z,4.09
2023-04-15T01:57:32.307Z,4.07
2023-04-15T01:57:42.546Z,4.07
2023-04-15T01:57:52.782Z,4.07
2023-04-15T01:58:03.015Z,4.04
2023-04-15T01:58:13.250Z,4.04
2023-04-15T01:58:23.488Z,4.04
2023-04-15T01:58:33.721Z,4.04
2023-04-15T01:58:43.958Z,4.04
2023-04-15T01:58:54.195Z,4.03
2023-04-15T01:59:04.433Z,4.04
2023-04-15T01:59:14.665Z,4.03
2023-04-15T01:59:24.911Z,4.04
2023-04-15T01:59:35.142Z,4.02
2023-04-15T01:59:45.449Z,4.03
2023-04-15T01:59:55.632Z,4.02
2023-04-15T02:00:05.868Z,4.02
2023-04-15T02:00:16.103Z,4.02
2023-04-15T02:00:26.336Z,4.00
2023-04-15T02:00:36.627Z,4.00
2023-04-15T02:00:46.884Z,4.00
2023-04-15T02:00:57.162Z,4.00
2023-04-15T02:01:07.433Z,4.00
2023-04-15T02:01:17.695Z,4.00
2023-04-15T02:01:27.990Z,3.99
2023-04-15T02:01:38.301Z,3.99
2023-04-15T02:01:48.548Z,3.99
2023-04-15T02:01:58.816Z,3.96
2023-04-15T02:02:09.066Z,3.96
2023-04-15T02:02:19.494Z,3.95
2023-04-15T02:02:29.668Z,3.99
2023-04-15T02:02:40.170Z,3.96
2023-04-15T02:02:50.353Z,3.95
2023-04-15T02:03:00.679Z,3.99
2023-04-15T02:03:11.031Z,3.95
2023-04-15T02:03:21.394Z,3.95
2023-04-15T02:03:31.730Z,3.95
2023-04-15T02:03:42.037Z,3.94
2023-04-15T02:03:52.347Z,3.94
2023-04-15T02:04:02.618Z,3.95
2023-04-15T02:04:12.861Z,3.92
2023-04-15T02:04:23.092Z,3.92
2023-04-15T02:04:33.324Z,3.94
2023-04-15T02:04:43.570Z,3.94
2023-04-15T02:04:53.801Z,3.94
2023-04-15T02:05:04.040Z,3.94
2023-04-15T02:05:14.273Z,3.92
2023-04-15T02:05:24.511Z,3.92
2023-04-15T02:05:34.752Z,3.94
2023-04-15T02:05:44.981Z,3.91
2023-04-15T02:05:55.212Z,3.91
2023-04-15T02:06:05.448Z,3.91
2023-04-15T02:06:15.681Z,3.92
2023-04-15T02:06:25.921Z,3.89
2023-04-15T02:06:36.162Z,3.91
2023-04-15T02:06:46.393Z,3.91
2023-04-15T02:06:56.639Z,3.89
2023-04-15T02:07:06.861Z,3.89
2023-04-15T02:07:17.135Z,3.89
2023-04-15T02:07:27.363Z,3.89
2023-04-15T02:07:37.595Z,3.89
2023-04-15T02:07:47.831Z,3.91
2023-04-15T02:07:58.069Z,3.89
2023-04-15T02:08:08.305Z,3.88
2023-04-15T02:08:18.548Z,3.88
2023-04-15T02:08:28.775Z,3.88
2023-04-15T02:08:39.006Z,3.86
2023-04-15T02:08:49.239Z,3.86
2023-04-15T02:08:59.673Z,3.86
2023-04-15T02:09:09.897Z,3.86
2023-04-15T02:09:20.133Z,3.88
2023-04-15T02:09:30.373Z,3.88
2023-04-15T02:09:40.604Z,3.88
2023-04-15T02:09:50.843Z,3.88
2023-04-15T02:10:01.074Z,3.86
2023-04-15T02:10:11.313Z,3.88
2023-04-15T02:10:21.545Z,3.85
2023-04-15T02:10:31.782Z,3.86
2023-04-15T02:10:42.022Z,3.86
2023-04-15T02:10:52.253Z,3.84
2023-04-15T02:11:02.489Z,3.85
2023-04-15T02:11:12.722Z,3.85
2023-04-15T02:11:22.958Z,3.85
2023-04-15T02:11:33.192Z,3.84
2023-04-15T02:11:43.425Z,3.82
2023-04-15T02:11:53.666Z,3.82
2023-04-15T02:12:03.930Z,3.84
2023-04-15T02:12:14.173Z,3.84
2023-04-15T02:12:24.401Z,3.84
2023-04-15T02:12:34.635Z,3.82
2023-04-15T02:12:44.877Z,3.82
2023-04-15T02:12:55.108Z,3.82
2023-04-15T02:13:05.339Z,3.84
2023-04-15T02:13:15.580Z,3.82
2023-04-15T02:13:25.836Z,3.82
2023-04-15T02:13:36.074Z,3.81
2023-04-15T02:13:46.303Z,3.82
2023-04-15T02:13:56.539Z,3.82
2023-04-15T02:14:06.791Z,3.81
2023-04-15T02:14:17.010Z,3.82
2023-04-15T02:14:27.249Z,3.81
2023-04-15T02:14:37.482Z,3.81
2023-04-15T02:14:47.746Z,3.78
2023-04-15T02:14:57.950Z,3.81
2023-04-15T02:15:08.186Z,3.78
2023-04-15T02:15:18.418Z,3.81
2023-04-15T02:15:28.661Z,3.78
2023-04-15T02:15:38.891Z,3.78
2023-04-15T02:15:49.127Z,3.77
2023-04-15T02:15:59.363Z,3.78
2023-04-15T02:16:09.649Z,3.77
2023-04-15T02:16:19.883Z,3.77
2023-04-15T02:16:30.158Z,3.77